createdAt,value
2017-09-13T00:00:26.062Z,0
2017-09-13T00:01:06.595Z,0
2017-09-13T00:01:47.168Z,0
2017-09-13T00:02:27.747Z,0
2017-09-13T00:03:08.275Z,0
2017-09-13T00:03:48.845Z,0
2017-09-13T00:04:29.381Z,0
2017-09-13T00:05:09.922Z,0
2017-09-13T00:05:50.484Z,0
2017-09-13T00:06:31.104Z,0
2017-09-13T00:07:11.646Z,0
2017-09-13T00:07:52.180Z,0
2017-09-13T00:08:32.905Z,0
2017-09-13T00:09:13.670Z,0
2017-09-13T00:09:54.011Z,0
2017-09-13T00:10:34.516Z,0
2017-09-13T00:11:15.095Z,0
2017-09-13T00:11:55.659Z,0
2017-09-13T00:12:36.217Z,0
2017-09-13T00:13:16.745Z,0
2017-09-13T00:13:57.362Z,0
2017-09-13T00:14:37.849Z,0
2017-09-13T00:15:18.431Z,0
2017-09-13T00:15:59.041Z,0
2017-09-13T00:16:39.540Z,0
2017-09-13T00:17:20.121Z,0
2017-09-13T00:18:00.699Z,0
2017-09-13T00:18:41.201Z,0
2017-09-13T00:19:21.725Z,0
2017-09-13T00:20:02.302Z,0
2017-09-13T00:20:42.844Z,0
2017-09-13T00:21:23.448Z,0
2017-09-13T00:22:03.906Z,0
2017-09-13T00:22:44.480Z,0
2017-09-13T00:23:25.011Z,0
2017-09-13T00:24:05.551Z,0
2017-09-13T00:24:46.150Z,0
2017-09-13T00:25:26.692Z,0
2017-09-13T00:26:07.245Z,0
2017-09-13T00:26:47.771Z,0
2017-09-13T00:27:28.337Z,0
2017-09-13T00:28:08.908Z,0
2017-09-13T00:28:49.465Z,0
2017-09-13T00:29:30.172Z,0
2017-09-13T00:30:10.674Z,0
2017-09-13T00:30:51.349Z,0
2017-09-13T00:31:31.938Z,0
2017-09-13T00:32:12.507Z,0
2017-09-13T00:32:53.077Z,0
2017-09-13T00:33:33.626Z,0
2017-09-13T00:34:14.362Z,0
2017-09-13T00:34:54.918Z,0
2017-09-13T00:35:35.518Z,0
2017-09-13T00:36:16.076Z,0
2017-09-13T00:36:56.799Z,0
2017-09-13T00:37:37.193Z,0
2017-09-13T00:38:17.735Z,0
2017-09-13T00:38:58.487Z,0
2017-09-13T00:39:38.986Z,0
2017-09-13T00:40:19.487Z,0
2017-09-13T00:41:00.033Z,0
2017-09-13T00:41:40.644Z,0
2017-09-13T00:42:21.205Z,0
2017-09-13T00:43:01.730Z,0
2017-09-13T00:43:42.337Z,0
2017-09-13T00:44:22.857Z,0
2017-09-13T00:45:03.367Z,0
2017-09-13T00:45:43.915Z,0
2017-09-13T00:46:24.398Z,0
2017-09-13T00:47:04.922Z,0
2017-09-13T00:47:45.713Z,0
2017-09-13T00:48:26.250Z,0
2017-09-13T00:49:06.828Z,0
2017-09-13T00:49:47.369Z,0
2017-09-13T00:50:28.229Z,0
2017-09-13T00:51:08.822Z,0
2017-09-13T00:51:49.370Z,0
2017-09-13T00:52:29.918Z,0
2017-09-13T00:53:10.471Z,0
2017-09-13T00:53:51.023Z,0
2017-09-13T00:54:31.556Z,0
2017-09-13T00:55:12.034Z,0
2017-09-13T00:55:52.596Z,0
2017-09-13T00:56:33.137Z,0
2017-09-13T00:57:13.668Z,0
2017-09-13T00:57:54.162Z,0
2017-09-13T00:58:34.741Z,0
2017-09-13T00:59:15.273Z,0
2017-09-13T00:59:55.748Z,0
2017-09-13T01:00:36.353Z,0
2017-09-13T01:01:17.001Z,0
2017-09-13T01:01:57.592Z,0
2017-09-13T01:02:38.112Z,0
2017-09-13T01:03:18.723Z,0
2017-09-13T01:03:59.236Z,0
2017-09-13T01:04:39.762Z,0
2017-09-13T01:05:20.306Z,0
2017-09-13T01:06:00.913Z,0
2017-09-13T01:06:41.438Z,0
2017-09-13T01:07:21.951Z,0
2017-09-13T01:08:02.542Z,0
2017-09-13T01:08:43.121Z,0
2017-09-13T01:09:23.655Z,0
2017-09-13T01:10:04.179Z,0
2017-09-13T01:10:44.735Z,0
2017-09-13T01:11:25.357Z,0
2017-09-13T01:12:05.908Z,0
2017-09-13T01:12:46.595Z,0
2017-09-13T01:13:27.177Z,0
2017-09-13T01:14:07.727Z,0
2017-09-13T01:14:48.203Z,0
2017-09-13T01:15:28.839Z,0
2017-09-13T01:16:09.367Z,0
2017-09-13T01:16:49.879Z,0
2017-09-13T01:17:30.403Z,0
2017-09-13T01:18:10.966Z,0
2017-09-13T01:18:51.512Z,0
2017-09-13T01:19:32.082Z,0
2017-09-13T01:20:12.617Z,0
2017-09-13T01:20:53.156Z,0
2017-09-13T01:21:33.662Z,0
2017-09-13T01:22:14.245Z,0
2017-09-13T01:22:54.773Z,0
2017-09-13T01:23:35.346Z,0
2017-09-13T01:24:15.860Z,0
2017-09-13T01:24:56.487Z,0
2017-09-13T01:25:37.017Z,0
2017-09-13T01:26:17.575Z,0
2017-09-13T01:26:58.130Z,0
2017-09-13T01:27:38.742Z,0
2017-09-13T01:28:19.228Z,0
2017-09-13T01:28:59.727Z,0
2017-09-13T01:29:40.314Z,0
2017-09-13T01:30:20.837Z,0
2017-09-13T01:31:01.387Z,0
2017-09-13T01:31:41.914Z,0
2017-09-13T01:32:22.479Z,0
2017-09-13T01:33:02.978Z,0
2017-09-13T01:33:43.643Z,0
2017-09-13T01:34:24.077Z,0
2017-09-13T01:35:04.637Z,0
2017-09-13T01:35:45.173Z,0
2017-09-13T01:36:25.725Z,0
2017-09-13T01:37:06.209Z,0
2017-09-13T01:37:46.791Z,0
2017-09-13T01:38:27.339Z,0
2017-09-13T01:39:07.874Z,0
2017-09-13T01:39:48.447Z,0
2017-09-13T01:40:28.969Z,0
2017-09-13T01:41:09.527Z,0
2017-09-13T01:41:50.038Z,0
2017-09-13T01:42:30.575Z,0
2017-09-13T01:43:11.134Z,0
2017-09-13T01:43:51.624Z,0
2017-09-13T01:44:32.162Z,0
2017-09-13T01:45:12.742Z,0
2017-09-13T01:45:53.247Z,0
2017-09-13T01:46:33.798Z,0
2017-09-13T01:47:14.301Z,0
2017-09-13T01:47:54.854Z,0
2017-09-13T01:48:35.331Z,0
2017-09-13T01:49:15.887Z,0
2017-09-13T01:49:56.423Z,0
2017-09-13T01:50:37.042Z,0
2017-09-13T01:51:17.558Z,0
2017-09-13T01:51:58.077Z,0
2017-09-13T01:52:38.623Z,0
2017-09-13T01:53:19.175Z,0
2017-09-13T01:53:59.712Z,0
2017-09-13T01:54:40.256Z,0
2017-09-13T01:55:20.821Z,0
2017-09-13T01:56:01.374Z,0
2017-09-13T01:56:41.890Z,0
2017-09-13T01:57:22.462Z,0
2017-09-13T01:58:03.010Z,0
2017-09-13T01:58:43.513Z,0
2017-09-13T01:59:24.059Z,0
2017-09-13T02:00:04.593Z,0
2017-09-13T02:00:45.206Z,0
2017-09-13T02:01:25.721Z,0
2017-09-13T02:02:06.295Z,0
2017-09-13T02:02:46.853Z,0
2017-09-13T02:03:27.363Z,0
2017-09-13T02:04:07.885Z,0
2017-09-13T02:04:48.438Z,0
2017-09-13T02:05:29.005Z,0
2017-09-13T02:06:09.541Z,0
2017-09-13T02:06:50.102Z,0
2017-09-13T02:07:30.642Z,0
2017-09-13T02:08:11.175Z,0
2017-09-13T02:08:51.723Z,0
2017-09-13T02:09:32.284Z,0
2017-09-13T02:10:12.786Z,0
2017-09-13T02:10:53.375Z,0
2017-09-13T02:11:33.948Z,0
2017-09-13T02:12:14.473Z,0
2017-09-13T02:12:54.983Z,0
2017-09-13T02:13:35.522Z,0
2017-09-13T02:14:16.071Z,0
2017-09-13T02:14:56.621Z,0
2017-09-13T02:15:37.195Z,0
2017-09-13T02:16:17.706Z,0
2017-09-13T02:16:58.273Z,0
2017-09-13T02:17:38.785Z,0
2017-09-13T02:18:19.298Z,0
2017-09-13T02:18:59.854Z,0
2017-09-13T02:19:40.378Z,0
2017-09-13T02:20:20.908Z,0
2017-09-13T02:21:01.435Z,0
2017-09-13T02:21:41.974Z,0
2017-09-13T02:22:22.652Z,0
2017-09-13T02:23:03.128Z,0
2017-09-13T02:23:43.616Z,0
2017-09-13T02:24:24.157Z,0
2017-09-13T02:25:04.683Z,0
2017-09-13T02:25:45.214Z,0
2017-09-13T02:26:25.799Z,0
2017-09-13T02:27:06.280Z,0
2017-09-13T02:27:46.845Z,0
2017-09-13T02:28:27.383Z,0
2017-09-13T02:29:07.926Z,0
2017-09-13T02:29:48.486Z,0
2017-09-13T02:30:29.026Z,0
2017-09-13T02:31:09.519Z,0
2017-09-13T02:31:50.070Z,0
2017-09-13T02:32:30.672Z,0
2017-09-13T02:33:11.231Z,0
2017-09-13T02:33:51.722Z,0
2017-09-13T02:34:32.289Z,0
2017-09-13T02:35:12.820Z,0
2017-09-13T02:35:53.372Z,0
2017-09-13T02:36:33.913Z,0
2017-09-13T02:37:14.451Z,0
2017-09-13T02:37:55.026Z,0
2017-09-13T02:38:35.532Z,0
2017-09-13T02:39:16.130Z,0
2017-09-13T02:39:56.679Z,0
2017-09-13T02:40:37.228Z,0
2017-09-13T02:41:17.775Z,0
2017-09-13T02:41:58.328Z,0
2017-09-13T02:42:38.869Z,0
2017-09-13T02:43:19.393Z,0
2017-09-13T02:43:59.929Z,0
2017-09-13T02:44:40.484Z,0
2017-09-13T02:45:21.028Z,0
2017-09-13T02:46:01.606Z,0
2017-09-13T02:46:42.117Z,0
2017-09-13T02:47:22.647Z,0
2017-09-13T02:48:03.254Z,0
2017-09-13T02:48:43.775Z,0
2017-09-13T02:49:24.422Z,0
2017-09-13T02:50:04.878Z,0
2017-09-13T02:50:45.413Z,0
2017-09-13T02:51:25.911Z,0
2017-09-13T02:52:06.490Z,0
2017-09-13T02:52:47.017Z,0
2017-09-13T02:53:27.569Z,0
2017-09-13T02:54:08.073Z,0
2017-09-13T02:54:48.630Z,0
2017-09-13T02:55:29.204Z,0
2017-09-13T02:56:09.668Z,0
2017-09-13T02:56:50.218Z,0
2017-09-13T02:57:30.774Z,0
2017-09-13T02:58:11.277Z,0
2017-09-13T02:58:51.840Z,0
2017-09-13T02:59:32.437Z,0
2017-09-13T03:00:12.951Z,0
2017-09-13T03:00:53.522Z,0
2017-09-13T03:01:34.030Z,0
2017-09-13T03:02:14.595Z,0
2017-09-13T03:02:55.135Z,0
2017-09-13T03:03:35.682Z,0
2017-09-13T03:04:16.231Z,0
2017-09-13T03:04:56.777Z,0
2017-09-13T03:05:37.343Z,0
2017-09-13T03:06:17.879Z,0
2017-09-13T03:06:58.374Z,0
2017-09-13T03:07:38.899Z,0
2017-09-13T03:08:19.433Z,0
2017-09-13T03:09:00.047Z,0
2017-09-13T03:09:40.650Z,0
2017-09-13T03:10:21.238Z,0
2017-09-13T03:11:01.705Z,0
2017-09-13T03:11:42.318Z,0
2017-09-13T03:12:22.878Z,0
2017-09-13T03:13:03.471Z,0
2017-09-13T03:13:44.030Z,0
2017-09-13T03:14:24.511Z,0
2017-09-13T03:15:05.047Z,0
2017-09-13T03:15:45.585Z,0
2017-09-13T03:16:26.167Z,0
2017-09-13T03:17:06.727Z,0
2017-09-13T03:17:47.270Z,0
2017-09-13T03:18:27.841Z,0
2017-09-13T03:19:08.471Z,0
2017-09-13T03:19:48.957Z,0
2017-09-13T03:20:29.540Z,0
2017-09-13T03:21:10.052Z,0
2017-09-13T03:21:50.604Z,0
2017-09-13T03:22:31.163Z,0
2017-09-13T03:23:11.698Z,0
2017-09-13T03:23:52.215Z,0
2017-09-13T03:24:32.766Z,0
2017-09-13T03:25:13.285Z,0
2017-09-13T03:25:53.854Z,0
2017-09-13T03:26:34.346Z,0
2017-09-13T03:27:14.844Z,0
2017-09-13T03:27:55.404Z,0
2017-09-13T03:28:35.975Z,0
2017-09-13T03:29:16.525Z,0
2017-09-13T03:29:57.060Z,0
2017-09-13T03:30:37.668Z,0
2017-09-13T03:31:19.200Z,0
2017-09-13T03:31:59.798Z,0
2017-09-13T03:32:40.343Z,0
2017-09-13T03:33:20.846Z,0
2017-09-13T03:34:01.383Z,0
2017-09-13T03:34:41.919Z,0
2017-09-13T03:35:22.447Z,0
2017-09-13T03:36:02.987Z,0
2017-09-13T03:36:43.556Z,0
2017-09-13T03:37:24.098Z,0
2017-09-13T03:38:04.690Z,0
2017-09-13T03:38:45.224Z,0
2017-09-13T03:39:25.787Z,0
2017-09-13T03:40:06.301Z,0
2017-09-13T03:40:46.825Z,0
2017-09-13T03:41:27.353Z,0
2017-09-13T03:42:07.920Z,0
2017-09-13T03:42:48.495Z,0
2017-09-13T03:43:29.028Z,0
2017-09-13T03:44:09.612Z,0
2017-09-13T03:44:50.104Z,0
2017-09-13T03:45:30.638Z,0
2017-09-13T03:46:11.153Z,0
2017-09-13T03:46:51.697Z,0
2017-09-13T03:47:32.279Z,0
2017-09-13T03:48:12.785Z,0
2017-09-13T03:48:53.341Z,0
2017-09-13T03:49:33.860Z,0
2017-09-13T03:50:14.493Z,0
2017-09-13T03:50:54.988Z,0
2017-09-13T03:51:35.520Z,0
2017-09-13T03:52:16.053Z,0
2017-09-13T03:52:56.583Z,0
2017-09-13T03:53:37.143Z,0
2017-09-13T03:54:17.665Z,0
2017-09-13T03:54:58.202Z,0
2017-09-13T03:55:38.739Z,0
2017-09-13T03:56:19.317Z,0
2017-09-13T03:56:59.867Z,0
2017-09-13T03:57:40.391Z,0
2017-09-13T03:58:20.939Z,0
2017-09-13T03:59:01.440Z,0
2017-09-13T03:59:41.999Z,0
2017-09-13T04:00:22.513Z,0
2017-09-13T04:01:03.085Z,0
2017-09-13T04:01:43.614Z,0
2017-09-13T04:02:24.086Z,0
2017-09-13T04:03:04.702Z,0
2017-09-13T04:03:45.246Z,0
2017-09-13T04:04:25.719Z,0
2017-09-13T04:05:06.327Z,0
2017-09-13T04:05:46.824Z,0
2017-09-13T04:06:27.380Z,0
2017-09-13T04:07:07.929Z,0
2017-09-13T04:07:48.479Z,0
2017-09-13T04:08:29.028Z,0
2017-09-13T04:09:09.595Z,0
2017-09-13T04:09:50.143Z,0
2017-09-13T04:10:30.726Z,0
2017-09-13T04:11:11.281Z,0
2017-09-13T04:11:51.815Z,0
2017-09-13T04:12:32.365Z,0
2017-09-13T04:13:12.919Z,0
2017-09-13T04:13:53.437Z,0
2017-09-13T04:14:34.041Z,0
2017-09-13T04:15:14.572Z,0
2017-09-13T04:15:55.163Z,0
2017-09-13T04:16:35.684Z,0
2017-09-13T04:17:16.258Z,0
2017-09-13T04:17:56.784Z,0
2017-09-13T04:18:37.308Z,0
2017-09-13T04:19:17.835Z,0
2017-09-13T04:19:58.391Z,0
2017-09-13T04:20:38.902Z,0
2017-09-13T04:21:19.424Z,0
2017-09-13T04:21:59.974Z,0
2017-09-13T04:22:40.503Z,0
2017-09-13T04:23:21.073Z,0
2017-09-13T04:24:01.608Z,0
2017-09-13T04:24:42.128Z,0
2017-09-13T04:25:22.635Z,0
2017-09-13T04:26:03.220Z,0
2017-09-13T04:26:43.753Z,0
2017-09-13T04:27:24.282Z,0
2017-09-13T04:28:04.754Z,0
2017-09-13T04:28:45.332Z,0
2017-09-13T04:29:25.832Z,0
2017-09-13T04:30:06.354Z,0
2017-09-13T04:30:46.908Z,0
2017-09-13T04:31:27.484Z,0
2017-09-13T04:32:08.008Z,0
2017-09-13T04:32:48.576Z,0
2017-09-13T04:33:29.125Z,0
2017-09-13T04:34:09.668Z,0
2017-09-13T04:34:50.253Z,0
2017-09-13T04:35:30.767Z,0
2017-09-13T04:36:11.248Z,0
2017-09-13T04:36:51.849Z,0
2017-09-13T04:37:32.469Z,0
2017-09-13T04:38:12.916Z,0
2017-09-13T04:38:53.469Z,0
2017-09-13T04:39:33.991Z,0
2017-09-13T04:40:14.530Z,0
2017-09-13T04:40:55.065Z,0
2017-09-13T04:41:35.574Z,0
2017-09-13T04:42:16.129Z,0
2017-09-13T04:42:56.748Z,0
2017-09-13T04:43:37.237Z,0
2017-09-13T04:44:17.783Z,0
2017-09-13T04:44:58.272Z,0
2017-09-13T04:45:38.862Z,0
2017-09-13T04:46:19.381Z,0
2017-09-13T04:46:59.923Z,0
2017-09-13T04:47:40.444Z,0
2017-09-13T04:48:21.129Z,0
2017-09-13T04:49:01.634Z,0
2017-09-13T04:49:42.166Z,0
2017-09-13T04:50:22.670Z,0
2017-09-13T04:51:03.291Z,0
2017-09-13T04:51:43.864Z,0
2017-09-13T04:52:24.381Z,0
2017-09-13T04:53:04.943Z,0
2017-09-13T04:53:45.490Z,0
2017-09-13T04:54:26.105Z,0
2017-09-13T04:55:06.632Z,0
2017-09-13T04:55:47.135Z,0
2017-09-13T04:56:27.711Z,0
2017-09-13T04:57:08.264Z,0
2017-09-13T04:57:48.810Z,0
2017-09-13T04:58:29.438Z,0
2017-09-13T04:59:10.058Z,0
2017-09-13T04:59:50.569Z,0
2017-09-13T05:00:31.120Z,0
2017-09-13T05:01:11.643Z,0
2017-09-13T05:01:52.203Z,0
2017-09-13T05:02:32.728Z,0
2017-09-13T05:03:13.274Z,0
2017-09-13T05:03:53.841Z,0
2017-09-13T05:04:34.396Z,0
2017-09-13T05:05:14.928Z,0
2017-09-13T05:05:55.464Z,0
2017-09-13T05:06:35.982Z,0
2017-09-13T05:07:16.499Z,0
2017-09-13T05:07:57.048Z,0
2017-09-13T05:08:37.617Z,0
2017-09-13T05:09:18.174Z,5
2017-09-13T05:09:58.736Z,5
2017-09-13T05:10:39.251Z,5
2017-09-13T05:11:19.824Z,5
2017-09-13T05:12:00.364Z,5
2017-09-13T05:12:40.940Z,5
2017-09-13T05:13:21.503Z,5
2017-09-13T05:14:02.058Z,5
2017-09-13T05:14:42.552Z,5
2017-09-13T05:15:23.016Z,5
2017-09-13T05:16:03.596Z,5
2017-09-13T05:16:44.126Z,5
2017-09-13T05:17:24.705Z,5
2017-09-13T05:18:05.241Z,10
2017-09-13T05:18:45.761Z,10
2017-09-13T05:19:26.324Z,10
2017-09-13T05:20:06.832Z,10
2017-09-13T05:20:47.381Z,10
2017-09-13T05:21:27.960Z,10
2017-09-13T05:22:08.480Z,10
2017-09-13T05:22:49.068Z,10
2017-09-13T05:23:29.579Z,10
2017-09-13T05:24:10.151Z,10
2017-09-13T05:24:50.720Z,10
2017-09-13T05:25:31.333Z,10
2017-09-13T05:26:11.882Z,10
2017-09-13T05:26:52.438Z,10
2017-09-13T05:27:33.154Z,10
2017-09-13T05:28:13.592Z,10
2017-09-13T05:28:54.174Z,10
2017-09-13T05:29:34.716Z,10
2017-09-13T05:30:17.365Z,10
2017-09-13T05:30:57.890Z,10
2017-09-13T05:31:38.448Z,10
2017-09-13T05:32:18.983Z,10
2017-09-13T05:32:59.602Z,10
2017-09-13T05:33:40.153Z,10
2017-09-13T05:34:20.666Z,10
2017-09-13T05:35:01.222Z,10
2017-09-13T05:35:41.707Z,10
2017-09-13T05:36:22.292Z,10
2017-09-13T05:37:02.832Z,10
2017-09-13T05:37:43.419Z,10
2017-09-13T05:38:24.507Z,10
2017-09-13T05:39:04.662Z,10
2017-09-13T05:39:45.624Z,10
2017-09-13T05:40:26.448Z,15
2017-09-13T05:41:07.079Z,15
2017-09-13T05:41:47.854Z,15
2017-09-13T05:42:28.473Z,15
2017-09-13T05:43:08.994Z,15
2017-09-13T05:43:49.902Z,15
2017-09-13T05:44:30.434Z,15
2017-09-13T05:45:11.111Z,15
2017-09-13T05:45:52.916Z,15
2017-09-13T05:46:33.365Z,15
2017-09-13T05:47:14.011Z,15
2017-09-13T05:47:54.730Z,15
2017-09-13T05:48:35.588Z,15
2017-09-13T05:49:16.145Z,15
2017-09-13T05:49:56.740Z,15
2017-09-13T05:50:37.266Z,15
2017-09-13T05:51:17.837Z,15
2017-09-13T05:51:58.408Z,15
2017-09-13T05:52:38.918Z,15
2017-09-13T05:53:19.524Z,15
2017-09-13T05:54:00.083Z,15
2017-09-13T05:54:40.573Z,15
2017-09-13T05:55:21.138Z,15
2017-09-13T05:56:01.694Z,15
2017-09-13T05:56:42.233Z,20
2017-09-13T05:57:22.823Z,20
2017-09-13T05:58:03.305Z,20
2017-09-13T05:58:43.785Z,20
2017-09-13T05:59:24.346Z,20
2017-09-13T06:00:04.953Z,20
2017-09-13T06:00:45.431Z,20
2017-09-13T06:01:25.997Z,25
2017-09-13T06:02:06.578Z,25
2017-09-13T06:02:47.068Z,20
2017-09-13T06:03:27.663Z,20
2017-09-13T06:04:08.225Z,20
2017-09-13T06:04:48.743Z,20
2017-09-13T06:05:29.262Z,20
2017-09-13T06:06:09.823Z,25
2017-09-13T06:06:50.362Z,25
2017-09-13T06:07:31.011Z,25
2017-09-13T06:08:11.498Z,25
2017-09-13T06:08:52.056Z,25
2017-09-13T06:09:32.622Z,25
2017-09-13T06:10:13.219Z,30
2017-09-13T06:10:53.785Z,30
2017-09-13T06:11:34.400Z,35
2017-09-13T06:12:15.185Z,35
2017-09-13T06:12:55.623Z,35
2017-09-13T06:13:36.296Z,35
2017-09-13T06:14:16.847Z,30
2017-09-13T06:14:57.411Z,30
2017-09-13T06:15:37.971Z,30
2017-09-13T06:16:18.611Z,25
2017-09-13T06:16:59.107Z,25
2017-09-13T06:17:39.815Z,20
2017-09-13T06:18:20.519Z,20
2017-09-13T06:19:00.992Z,20
2017-09-13T06:19:41.496Z,25
2017-09-13T06:20:22.014Z,25
2017-09-13T06:21:02.561Z,25
2017-09-13T06:21:43.129Z,25
2017-09-13T06:22:23.648Z,25
2017-09-13T06:23:04.247Z,25
2017-09-13T06:23:44.805Z,20
2017-09-13T06:24:25.649Z,20
2017-09-13T06:25:06.247Z,15
2017-09-13T06:25:46.767Z,15
2017-09-13T06:26:27.305Z,15
2017-09-13T06:27:07.856Z,15
2017-09-13T06:27:48.411Z,15
2017-09-13T06:28:28.963Z,20
2017-09-13T06:29:09.606Z,20
2017-09-13T06:29:50.079Z,20
2017-09-13T06:30:30.662Z,20
2017-09-13T06:31:11.201Z,20
2017-09-13T06:31:51.724Z,20
2017-09-13T06:32:32.260Z,20
2017-09-13T06:33:12.948Z,20
2017-09-13T06:33:53.455Z,20
2017-09-13T06:34:33.948Z,20
2017-09-13T06:35:14.518Z,20
2017-09-13T06:35:55.030Z,20
2017-09-13T06:36:35.564Z,25
2017-09-13T06:37:16.074Z,25
2017-09-13T06:37:56.610Z,20
2017-09-13T06:38:37.165Z,20
2017-09-13T06:39:17.731Z,20
2017-09-13T06:39:58.360Z,20
2017-09-13T06:40:38.797Z,25
2017-09-13T06:41:19.358Z,25
2017-09-13T06:41:59.935Z,25
2017-09-13T06:42:41.150Z,25
2017-09-13T06:43:21.700Z,25
2017-09-13T06:44:02.269Z,25
2017-09-13T06:44:42.753Z,25
2017-09-13T06:45:23.310Z,25
2017-09-13T06:46:03.851Z,25
2017-09-13T06:46:44.370Z,25
2017-09-13T06:47:24.952Z,20
2017-09-13T06:48:05.481Z,20
2017-09-13T06:48:46.024Z,20
2017-09-13T06:49:26.611Z,20
2017-09-13T06:50:07.152Z,20
2017-09-13T06:50:47.702Z,15
2017-09-13T06:51:28.253Z,15
2017-09-13T06:52:08.773Z,15
2017-09-13T06:52:49.318Z,20
2017-09-13T06:53:29.877Z,20
2017-09-13T06:54:10.343Z,20
2017-09-13T06:54:50.951Z,25
2017-09-13T06:55:31.494Z,25
2017-09-13T06:56:12.054Z,30
2017-09-13T06:56:52.623Z,30
2017-09-13T06:57:33.163Z,30
2017-09-13T06:58:13.718Z,35
2017-09-13T06:58:54.260Z,35
2017-09-13T06:59:34.781Z,40
2017-09-13T07:00:15.341Z,35
2017-09-13T07:00:55.867Z,40
2017-09-13T07:01:36.421Z,40
2017-09-13T07:02:17.613Z,40
2017-09-13T07:02:58.117Z,40
2017-09-13T07:03:38.858Z,45
2017-09-13T07:04:19.182Z,45
2017-09-13T07:04:59.720Z,40
2017-09-13T07:05:40.276Z,40
2017-09-13T07:06:20.840Z,45
2017-09-13T07:07:01.394Z,50
2017-09-13T07:07:41.940Z,50
2017-09-13T07:08:22.455Z,50
2017-09-13T07:09:03.033Z,50
2017-09-13T07:09:43.568Z,50
2017-09-13T07:10:24.162Z,45
2017-09-13T07:11:06.189Z,40
2017-09-13T07:11:46.714Z,40
2017-09-13T07:12:27.234Z,40
2017-09-13T07:13:08.007Z,45
2017-09-13T07:13:48.835Z,45
2017-09-13T07:14:29.384Z,45
2017-09-13T07:15:09.935Z,45
2017-09-13T07:15:50.468Z,50
2017-09-13T07:16:31.528Z,50
2017-09-13T07:17:12.047Z,50
2017-09-13T07:17:52.563Z,50
2017-09-13T07:18:33.144Z,50
2017-09-13T07:19:13.714Z,55
2017-09-13T07:19:54.303Z,55
2017-09-13T07:20:35.027Z,55
2017-09-13T07:21:15.418Z,55
2017-09-13T07:21:56.040Z,50
2017-09-13T07:22:36.644Z,45
2017-09-13T07:23:17.241Z,45
2017-09-13T07:23:57.756Z,45
2017-09-13T07:24:38.531Z,45
2017-09-13T07:25:19.070Z,40
2017-09-13T07:25:59.612Z,40
2017-09-13T07:26:40.331Z,40
2017-09-13T07:27:20.860Z,45
2017-09-13T07:28:01.409Z,50
2017-09-13T07:28:41.971Z,55
2017-09-13T07:29:22.476Z,55
2017-09-13T07:30:03.032Z,55
2017-09-13T07:30:43.753Z,50
2017-09-13T07:31:24.409Z,50
2017-09-13T07:32:04.966Z,50
2017-09-13T07:32:45.567Z,50
2017-09-13T07:33:26.061Z,50
2017-09-13T07:34:06.560Z,50
2017-09-13T07:34:47.604Z,50
2017-09-13T07:35:28.161Z,50
2017-09-13T07:36:08.792Z,50
2017-09-13T07:36:50.206Z,50
2017-09-13T07:37:30.713Z,55
2017-09-13T07:38:11.296Z,55
2017-09-13T07:38:52.104Z,55
2017-09-13T07:39:32.633Z,55
2017-09-13T07:40:13.167Z,55
2017-09-13T07:40:53.710Z,55
2017-09-13T07:41:34.225Z,60
2017-09-13T07:42:14.813Z,55
2017-09-13T07:42:55.346Z,55
2017-09-13T07:43:35.867Z,55
2017-09-13T07:44:16.982Z,55
2017-09-13T07:44:57.562Z,55
2017-09-13T07:45:38.090Z,65
2017-09-13T07:46:18.671Z,70
2017-09-13T07:46:59.271Z,70
2017-09-13T07:47:39.811Z,70
2017-09-13T07:48:20.317Z,70
2017-09-13T07:49:00.885Z,60
2017-09-13T07:49:41.443Z,65
2017-09-13T07:50:22.791Z,65
2017-09-13T07:51:03.191Z,60
2017-09-13T07:51:44.109Z,60
2017-09-13T07:52:24.675Z,65
2017-09-13T07:53:05.179Z,55
2017-09-13T07:53:45.711Z,55
2017-09-13T07:54:26.241Z,50
2017-09-13T07:55:06.788Z,55
2017-09-13T07:55:47.350Z,55
2017-09-13T07:56:27.884Z,50
2017-09-13T07:57:08.364Z,45
2017-09-13T07:57:48.973Z,45
2017-09-13T07:58:29.531Z,45
2017-09-13T07:59:10.105Z,45
2017-09-13T07:59:50.672Z,45
2017-09-13T08:00:31.235Z,55
2017-09-13T08:01:12.134Z,55
2017-09-13T08:01:52.551Z,55
2017-09-13T08:02:33.135Z,55
2017-09-13T08:03:13.624Z,55
2017-09-13T08:03:54.208Z,60
2017-09-13T08:04:34.743Z,60
2017-09-13T08:05:15.250Z,60
2017-09-13T08:05:55.766Z,55
2017-09-13T08:06:36.308Z,55
2017-09-13T08:07:16.834Z,55
2017-09-13T08:07:57.459Z,55
2017-09-13T08:08:37.911Z,55
2017-09-13T08:09:18.473Z,65
2017-09-13T08:09:59.010Z,70
2017-09-13T08:10:39.566Z,75
2017-09-13T08:11:20.134Z,80
2017-09-13T08:12:00.667Z,90
2017-09-13T08:12:41.205Z,95
2017-09-13T08:13:21.789Z,100
2017-09-13T08:14:02.332Z,90
2017-09-13T08:14:43.510Z,85
2017-09-13T08:15:24.048Z,80
2017-09-13T08:16:04.606Z,70
2017-09-13T08:16:45.153Z,70
2017-09-13T08:17:25.763Z,65
2017-09-13T08:18:06.256Z,70
2017-09-13T08:18:46.824Z,70
2017-09-13T08:19:27.338Z,75
2017-09-13T08:20:07.915Z,85
2017-09-13T08:20:48.422Z,85
2017-09-13T08:21:29.007Z,85
2017-09-13T08:22:09.529Z,90
2017-09-13T08:22:50.017Z,90
2017-09-13T08:23:30.559Z,95
2017-09-13T08:24:11.218Z,105
2017-09-13T08:24:52.352Z,100
2017-09-13T08:25:32.912Z,95
2017-09-13T08:26:13.589Z,95
2017-09-13T08:26:54.093Z,90
2017-09-13T08:27:34.627Z,85
2017-09-13T08:28:15.519Z,85
2017-09-13T08:28:56.113Z,85
2017-09-13T08:29:36.666Z,90
2017-09-13T08:30:17.210Z,100
2017-09-13T08:30:57.751Z,95
2017-09-13T08:31:38.280Z,90
2017-09-13T08:32:18.922Z,90
2017-09-13T08:32:59.389Z,95
2017-09-13T08:33:39.976Z,100
2017-09-13T08:34:20.558Z,100
2017-09-13T08:35:01.072Z,100
2017-09-13T08:35:41.601Z,100
2017-09-13T08:36:23.097Z,100
2017-09-13T08:37:03.598Z,100
2017-09-13T08:37:44.131Z,110
2017-09-13T08:38:24.737Z,110
2017-09-13T08:39:05.258Z,110
2017-09-13T08:39:46.133Z,105
2017-09-13T08:40:26.774Z,110
2017-09-13T08:41:07.333Z,115
2017-09-13T08:41:47.984Z,105
2017-09-13T08:42:28.619Z,95
2017-09-13T08:43:09.164Z,80
2017-09-13T08:43:50.530Z,70
2017-09-13T08:44:31.078Z,65
2017-09-13T08:45:11.934Z,65
2017-09-13T08:45:52.466Z,70
2017-09-13T08:46:33.018Z,80
2017-09-13T08:47:13.517Z,70
2017-09-13T08:47:55.996Z,70
2017-09-13T08:48:36.670Z,65
2017-09-13T08:49:17.507Z,70
2017-09-13T08:50:00.235Z,70
2017-09-13T08:50:40.783Z,75
2017-09-13T08:51:21.380Z,80
2017-09-13T08:52:01.942Z,75
2017-09-13T08:52:43.169Z,75
2017-09-13T08:53:23.689Z,80
2017-09-13T08:54:04.247Z,100
2017-09-13T08:54:44.772Z,120
2017-09-13T08:55:25.322Z,160
2017-09-13T08:56:05.966Z,160
2017-09-13T08:56:46.464Z,145
2017-09-13T08:57:27.498Z,155
2017-09-13T08:58:07.951Z,155
2017-09-13T08:58:48.815Z,140
2017-09-13T08:59:29.368Z,135
2017-09-13T09:00:10.100Z,135
2017-09-13T09:00:50.658Z,130
2017-09-13T09:01:31.350Z,120
2017-09-13T09:02:11.892Z,120
2017-09-13T09:02:52.454Z,115
2017-09-13T09:03:33.063Z,110
2017-09-13T09:04:13.605Z,110
2017-09-13T09:04:54.582Z,110
2017-09-13T09:05:35.142Z,105
2017-09-13T09:06:15.655Z,105
2017-09-13T09:06:56.222Z,105
2017-09-13T09:07:36.765Z,105
2017-09-13T09:08:17.302Z,110
2017-09-13T09:08:58.544Z,110
2017-09-13T09:09:39.119Z,115
2017-09-13T09:10:19.673Z,120
2017-09-13T09:11:00.291Z,125
2017-09-13T09:11:40.885Z,125
2017-09-13T09:12:21.502Z,120
2017-09-13T09:13:02.043Z,115
2017-09-13T09:13:42.544Z,120
2017-09-13T09:14:23.149Z,125
2017-09-13T09:15:03.693Z,125
2017-09-13T09:15:44.253Z,140
2017-09-13T09:16:31.561Z,145
2017-09-13T09:17:13.416Z,145
2017-09-13T09:17:55.466Z,145
2017-09-13T09:18:35.384Z,145
2017-09-13T09:19:15.974Z,140
2017-09-13T09:19:56.530Z,145
2017-09-13T09:20:37.079Z,160
2017-09-13T09:21:17.691Z,155
2017-09-13T09:21:58.770Z,135
2017-09-13T09:22:39.219Z,110
2017-09-13T09:23:19.943Z,100
2017-09-13T09:24:00.451Z,90
2017-09-13T09:24:40.950Z,85
2017-09-13T09:25:22.918Z,75
2017-09-13T09:26:03.714Z,70
2017-09-13T09:26:44.220Z,70
2017-09-13T09:27:25.163Z,75
2017-09-13T09:28:05.739Z,80
2017-09-13T09:28:46.244Z,75
2017-09-13T09:29:26.818Z,80
2017-09-13T09:30:07.419Z,90
2017-09-13T09:30:48.268Z,105
2017-09-13T09:31:28.851Z,110
2017-09-13T09:32:09.540Z,115
2017-09-13T09:32:50.035Z,95
2017-09-13T09:33:30.690Z,85
2017-09-13T09:34:11.378Z,80
2017-09-13T09:34:51.984Z,95
2017-09-13T09:35:32.494Z,100
2017-09-13T09:36:13.050Z,105
2017-09-13T09:36:53.654Z,110
2017-09-13T09:37:34.198Z,125
2017-09-13T09:38:14.782Z,125
2017-09-13T09:38:55.385Z,110
2017-09-13T09:39:35.861Z,105
2017-09-13T09:40:16.391Z,95
2017-09-13T09:40:57.045Z,85
2017-09-13T09:41:37.670Z,80
2017-09-13T09:42:18.250Z,75
2017-09-13T09:42:59.079Z,70
2017-09-13T09:43:39.628Z,65
2017-09-13T09:44:20.183Z,65
2017-09-13T09:45:00.688Z,65
2017-09-13T09:45:41.286Z,60
2017-09-13T09:46:21.841Z,60
2017-09-13T09:47:02.364Z,60
2017-09-13T09:47:42.888Z,65
2017-09-13T09:48:23.403Z,65